sensor_id;sensor_type;location;lat;lon;timestamp;temperature;humidity
11497;DHT22;5805;51.542;7.230;2023-01-20T00:01:18;5.30;99.90
11497;DHT22;5805;51.542;7.230;2023-01-20T00:03:44;5.30;99.90
11497;DHT22;5805;51.542;7.230;2023-01-20T00:06:11;5.70;99.90
11497;DHT22;5805;51.542;7.230;2023-01-20T00:08:37;5.40;99.90
11497;DHT22;5805;51.542;7.230;2023-01-20T00:11:04;5.30;99.90
11497;DHT22;5805;51.542;7.230;2023-01-20T00:13:30;5.30;99.90
11497;DHT22;5805;51.542;7.230;2023-01-20T00:15:55;5.30;99.90
11497;DHT22;5805;51.542;7.230;2023-01-20T00:18:21;5.30;99.90
11497;DHT22;5805;51.542;7.230;2023-01-20T00:20:47;5.30;99.90
11497;DHT22;5805;51.542;7.230;2023-01-20T00:23:14;5.30;99.90
11497;DHT22;5805;51.542;7.230;2023-01-20T00:25:39;5.30;99.90
11497;DHT22;5805;51.542;7.230;2023-01-20T00:28:05;5.30;99.90
11497;DHT22;5805;51.542;7.230;2023-01-20T00:30:31;5.30;99.90
11497;DHT22;5805;51.542;7.230;2023-01-20T00:32:56;5.30;99.90
11497;DHT22;5805;51.542;7.230;2023-01-20T00:35:22;5.40;99.90
11497;DHT22;5805;51.542;7.230;2023-01-20T00:37:48;5.30;99.90
11497;DHT22;5805;51.542;7.230;2023-01-20T00:40:15;5.20;99.90
11497;DHT22;5805;51.542;7.230;2023-01-20T00:42:41;5.20;99.90
11497;DHT22;5805;51.542;7.230;2023-01-20T00:45:07;5.20;99.90
11497;DHT22;5805;51.542;7.230;2023-01-20T00:47:33;5.10;99.90
11497;DHT22;5805;51.542;7.230;2023-01-20T00:49:59;5.20;99.90
11497;DHT22;5805;51.542;7.230;2023-01-20T00:52:24;5.30;99.90
11497;DHT22;5805;51.542;7.230;2023-01-20T00:54:50;5.10;99.90
11497;DHT22;5805;51.542;7.230;2023-01-20T00:57:17;5.20;99.90
11497;DHT22;5805;51.542;7.230;2023-01-20T00:59:43;5.20;99.90
11497;DHT22;5805;51.542;7.230;2023-01-20T01:02:09;5.20;99.90
11497;DHT22;5805;51.542;7.230;2023-01-20T01:04:34;5.10;99.90
11497;DHT22;5805;51.542;7.230;2023-01-20T01:07:00;5.10;99.90
11497;DHT22;5805;51.542;7.230;2023-01-20T01:09:25;5.10;99.90
11497;DHT22;5805;51.542;7.230;2023-01-20T01:11:51;5.10;99.90
11497;DHT22;5805;51.542;7.230;2023-01-20T01:14:18;5.10;99.90
11497;DHT22;5805;51.542;7.230;2023-01-20T01:16:44;5.10;99.90
11497;DHT22;5805;51.542;7.230;2023-01-20T01:19:09;5.10;99.90
11497;DHT22;5805;51.542;7.230;2023-01-20T01:21:35;5.10;99.90
11497;DHT22;5805;51.542;7.230;2023-01-20T01:24:01;5.10;99.90
11497;DHT22;5805;51.542;7.230;2023-01-20T01:26:27;5.10;99.90
11497;DHT22;5805;51.542;7.230;2023-01-20T01:28:52;5.10;99.90
11497;DHT22;5805;51.542;7.230;2023-01-20T01:31:19;5.10;99.90
11497;DHT22;5805;51.542;7.230;2023-01-20T01:33:45;5.10;99.90
11497;DHT22;5805;51.542;7.230;2023-01-20T01:36:12;5.10;99.90
11497;DHT22;5805;51.542;7.230;2023-01-20T01:38:38;5.10;99.90
11497;DHT22;5805;51.542;7.230;2023-01-20T01:41:04;5.10;99.90
11497;DHT22;5805;51.542;7.230;2023-01-20T01:43:32;5.00;99.90
11497;DHT22;5805;51.542;7.230;2023-01-20T01:45:58;5.00;99.90
11497;DHT22;5805;51.542;7.230;2023-01-20T01:48:28;5.00;99.90
11497;DHT22;5805;51.542;7.230;2023-01-20T01:50:58;5.00;99.90
11497;DHT22;5805;51.542;7.230;2023-01-20T01:53:28;4.90;99.90
11497;DHT22;5805;51.542;7.230;2023-01-20T01:55:58;4.90;99.90
11497;DHT22;5805;51.542;7.230;2023-01-20T01:58:28;5.00;99.90
11497;DHT22;5805;51.542;7.230;2023-01-20T02:00:55;4.90;99.90
11497;DHT22;5805;51.542;7.230;2023-01-20T02:03:20;5.20;99.90
11497;DHT22;5805;51.542;7.230;2023-01-20T02:05:49;5.30;99.90
11497;DHT22;5805;51.542;7.230;2023-01-20T02:08:16;5.00;99.90
11497;DHT22;5805;51.542;7.230;2023-01-20T02:10:42;5.20;99.90
11497;DHT22;5805;51.542;7.230;2023-01-20T02:13:08;5.00;99.90
11497;DHT22;5805;51.542;7.230;2023-01-20T02:15:38;5.00;99.90
11497;DHT22;5805;51.542;7.230;2023-01-20T02:18:22;5.60;99.90
11497;DHT22;5805;51.542;7.230;2023-01-20T02:21:07;5.00;99.90
11497;DHT22;5805;51.542;7.230;2023-01-20T02:23:57;5.00;99.90
11497;DHT22;5805;51.542;7.230;2023-01-20T02:26:46;5.00;99.90
11497;DHT22;5805;51.542;7.230;2023-01-20T02:29:31;5.00;99.90
11497;DHT22;5805;51.542;7.230;2023-01-20T02:32:13;5.00;99.90
11497;DHT22;5805;51.542;7.230;2023-01-20T02:34:45;5.70;99.90
11497;DHT22;5805;51.542;7.230;2023-01-20T02:37:17;5.00;99.90
11497;DHT22;5805;51.542;7.230;2023-01-20T02:39:49;5.30;99.90
11497;DHT22;5805;51.542;7.230;2023-01-20T02:42:23;5.00;99.90
11497;DHT22;5805;51.542;7.230;2023-01-20T02:44:53;4.90;99.90
11497;DHT22;5805;51.542;7.230;2023-01-20T02:47:25;4.80;99.90
11497;DHT22;5805;51.542;7.230;2023-01-20T02:49:56;4.90;99.90
11497;DHT22;5805;51.542;7.230;2023-01-20T02:52:24;4.70;99.90
11497;DHT22;5805;51.542;7.230;2023-01-20T02:54:53;4.70;99.90
11497;DHT22;5805;51.542;7.230;2023-01-20T02:57:24;4.80;99.90
11497;DHT22;5805;51.542;7.230;2023-01-20T02:59:57;4.80;99.90
11497;DHT22;5805;51.542;7.230;2023-01-20T03:02:29;4.80;99.90
11497;DHT22;5805;51.542;7.230;2023-01-20T03:05:00;4.90;99.90
11497;DHT22;5805;51.542;7.230;2023-01-20T03:07:28;4.90;99.90
11497;DHT22;5805;51.542;7.230;2023-01-20T03:09:58;5.00;99.90
11497;DHT22;5805;51.542;7.230;2023-01-20T03:12:29;4.90;99.90
11497;DHT22;5805;51.542;7.230;2023-01-20T03:14:55;4.90;99.90
11497;DHT22;5805;51.542;7.230;2023-01-20T03:17:22;5.10;99.90
11497;DHT22;5805;51.542;7.230;2023-01-20T03:19:49;4.90;99.90
11497;DHT22;5805;51.542;7.230;2023-01-20T03:22:15;5.20;99.90
11497;DHT22;5805;51.542;7.230;2023-01-20T03:24:41;4.90;99.90
11497;DHT22;5805;51.542;7.230;2023-01-20T03:27:09;4.90;99.90
11497;DHT22;5805;51.542;7.230;2023-01-20T03:29:35;4.90;99.90
11497;DHT22;5805;51.542;7.230;2023-01-20T03:32:02;4.90;99.90
11497;DHT22;5805;51.542;7.230;2023-01-20T03:34:31;4.80;99.90
11497;DHT22;5805;51.542;7.230;2023-01-20T03:37:00;4.90;99.90
11497;DHT22;5805;51.542;7.230;2023-01-20T03:39:27;4.80;99.90
11497;DHT22;5805;51.542;7.230;2023-01-20T03:42:01;4.80;99.90
11497;DHT22;5805;51.542;7.230;2023-01-20T03:44:36;5.00;99.90
11497;DHT22;5805;51.542;7.230;2023-01-20T03:47:09;4.80;99.90
11497;DHT22;5805;51.542;7.230;2023-01-20T03:49:43;4.80;99.90
11497;DHT22;5805;51.542;7.230;2023-01-20T03:52:17;5.00;99.90
11497;DHT22;5805;51.542;7.230;2023-01-20T03:54:50;5.00;99.90
11497;DHT22;5805;51.542;7.230;2023-01-20T03:57:18;4.90;99.90
11497;DHT22;5805;51.542;7.230;2023-01-20T03:59:47;4.80;99.90
11497;DHT22;5805;51.542;7.230;2023-01-20T04:02:14;4.80;99.90
11497;DHT22;5805;51.542;7.230;2023-01-20T04:04:42;4.90;99.90
11497;DHT22;5805;51.542;7.230;2023-01-20T04:07:13;5.10;99.90
11497;DHT22;5805;51.542;7.230;2023-01-20T04:09:43;5.30;99.90
11497;DHT22;5805;51.542;7.230;2023-01-20T04:12:10;4.90;99.90
11497;DHT22;5805;51.542;7.230;2023-01-20T04:14:36;4.90;99.90
11497;DHT22;5805;51.542;7.230;2023-01-20T04:17:03;4.90;99.90
11497;DHT22;5805;51.542;7.230;2023-01-20T04:19:29;5.00;99.90
11497;DHT22;5805;51.542;7.230;2023-01-20T04:21:59;4.90;99.90
11497;DHT22;5805;51.542;7.230;2023-01-20T04:24:31;4.90;99.90
11497;DHT22;5805;51.542;7.230;2023-01-20T04:26:57;4.80;99.90
11497;DHT22;5805;51.542;7.230;2023-01-20T04:29:23;4.80;99.90
11497;DHT22;5805;51.542;7.230;2023-01-20T04:31:48;5.20;99.90
11497;DHT22;5805;51.542;7.230;2023-01-20T04:34:14;4.90;99.90
11497;DHT22;5805;51.542;7.230;2023-01-20T04:36:40;4.90;99.90
11497;DHT22;5805;51.542;7.230;2023-01-20T04:39:06;4.90;99.90
11497;DHT22;5805;51.542;7.230;2023-01-20T04:41:33;4.90;99.90
11497;DHT22;5805;51.542;7.230;2023-01-20T04:43:59;4.90;99.90
11497;DHT22;5805;51.542;7.230;2023-01-20T04:46:25;4.90;99.90
11497;DHT22;5805;51.542;7.230;2023-01-20T04:48:50;4.90;99.90
11497;DHT22;5805;51.542;7.230;2023-01-20T04:51:16;5.00;99.90
11497;DHT22;5805;51.542;7.230;2023-01-20T04:53:42;4.90;99.90
11497;DHT22;5805;51.542;7.230;2023-01-20T04:56:10;4.90;99.90
11497;DHT22;5805;51.542;7.230;2023-01-20T04:58:37;4.90;99.90
11497;DHT22;5805;51.542;7.230;2023-01-20T05:01:03;4.90;99.90
11497;DHT22;5805;51.542;7.230;2023-01-20T05:03:29;4.90;99.90
11497;DHT22;5805;51.542;7.230;2023-01-20T05:05:54;5.20;99.90
11497;DHT22;5805;51.542;7.230;2023-01-20T05:08:21;4.80;99.90
11497;DHT22;5805;51.542;7.230;2023-01-20T05:10:47;4.80;99.90
11497;DHT22;5805;51.542;7.230;2023-01-20T05:13:12;4.80;99.90
11497;DHT22;5805;51.542;7.230;2023-01-20T05:15:40;4.80;99.90
11497;DHT22;5805;51.542;7.230;2023-01-20T05:18:06;4.80;99.90
11497;DHT22;5805;51.542;7.230;2023-01-20T05:20:32;5.10;99.90
11497;DHT22;5805;51.542;7.230;2023-01-20T05:22:57;4.80;99.90
11497;DHT22;5805;51.542;7.230;2023-01-20T05:25:23;4.80;99.90
11497;DHT22;5805;51.542;7.230;2023-01-20T05:27:49;4.80;99.90
11497;DHT22;5805;51.542;7.230;2023-01-20T05:30:15;4.90;99.90
11497;DHT22;5805;51.542;7.230;2023-01-20T05:32:43;4.80;99.90
11497;DHT22;5805;51.542;7.230;2023-01-20T05:35:09;4.70;99.90
11497;DHT22;5805;51.542;7.230;2023-01-20T05:37:35;4.70;99.90
11497;DHT22;5805;51.542;7.230;2023-01-20T05:40:01;4.60;99.90
11497;DHT22;5805;51.542;7.230;2023-01-20T05:42:26;4.60;99.90
11497;DHT22;5805;51.542;7.230;2023-01-20T05:44:52;4.60;99.90
11497;DHT22;5805;51.542;7.230;2023-01-20T05:47:18;4.50;99.90
11497;DHT22;5805;51.542;7.230;2023-01-20T05:49:45;4.60;99.90
11497;DHT22;5805;51.542;7.230;2023-01-20T05:52:10;4.50;99.90
11497;DHT22;5805;51.542;7.230;2023-01-20T05:54:36;4.50;99.90
11497;DHT22;5805;51.542;7.230;2023-01-20T05:57:02;4.50;99.90
11497;DHT22;5805;51.542;7.230;2023-01-20T05:59:27;4.50;99.90
11497;DHT22;5805;51.542;7.230;2023-01-20T06:01:53;4.70;99.90
11497;DHT22;5805;51.542;7.230;2023-01-20T06:04:19;4.60;99.90
11497;DHT22;5805;51.542;7.230;2023-01-20T06:06:46;4.60;99.90
11497;DHT22;5805;51.542;7.230;2023-01-20T06:09:11;4.60;99.90
11497;DHT22;5805;51.542;7.230;2023-01-20T06:11:37;4.60;99.90
11497;DHT22;5805;51.542;7.230;2023-01-20T06:14:03;4.60;99.90
11497;DHT22;5805;51.542;7.230;2023-01-20T06:16:28;4.70;99.90
11497;DHT22;5805;51.542;7.230;2023-01-20T06:18:54;5.00;99.90
11497;DHT22;5805;51.542;7.230;2023-01-20T06:21:20;4.70;99.90
11497;DHT22;5805;51.542;7.230;2023-01-20T06:23:47;4.70;99.90
11497;DHT22;5805;51.542;7.230;2023-01-20T06:26:13;4.70;99.90
11497;DHT22;5805;51.542;7.230;2023-01-20T06:28:38;4.70;99.90
11497;DHT22;5805;51.542;7.230;2023-01-20T06:31:06;4.70;99.90
11497;DHT22;5805;51.542;7.230;2023-01-20T06:33:32;4.70;99.90
11497;DHT22;5805;51.542;7.230;2023-01-20T06:35:58;4.70;99.90
11497;DHT22;5805;51.542;7.230;2023-01-20T06:38:26;4.70;99.90
11497;DHT22;5805;51.542;7.230;2023-01-20T06:40:57;4.70;99.90
11497;DHT22;5805;51.542;7.230;2023-01-20T06:43:23;4.70;99.90
11497;DHT22;5805;51.542;7.230;2023-01-20T06:45:49;4.70;99.90
11497;DHT22;5805;51.542;7.230;2023-01-20T06:48:14;4.70;99.90
11497;DHT22;5805;51.542;7.230;2023-01-20T06:50:40;4.80;99.90
11497;DHT22;5805;51.542;7.230;2023-01-20T06:53:06;4.80;99.90
11497;DHT22;5805;51.542;7.230;2023-01-20T06:55:31;4.80;99.90
11497;DHT22;5805;51.542;7.230;2023-01-20T06:57:58;4.80;99.90
11497;DHT22;5805;51.542;7.230;2023-01-20T07:00:24;4.80;99.90
11497;DHT22;5805;51.542;7.230;2023-01-20T07:02:50;4.80;99.90
11497;DHT22;5805;51.542;7.230;2023-01-20T07:05:16;4.80;99.90
11497;DHT22;5805;51.542;7.230;2023-01-20T07:07:42;4.80;99.90
11497;DHT22;5805;51.542;7.230;2023-01-20T07:10:09;4.80;99.90
11497;DHT22;5805;51.542;7.230;2023-01-20T07:12:35;4.80;99.90
11497;DHT22;5805;51.542;7.230;2023-01-20T07:15:03;4.80;99.90
11497;DHT22;5805;51.542;7.230;2023-01-20T07:17:29;4.80;99.90
11497;DHT22;5805;51.542;7.230;2023-01-20T07:19:55;4.80;99.90
11497;DHT22;5805;51.542;7.230;2023-01-20T07:22:20;4.90;99.90
11497;DHT22;5805;51.542;7.230;2023-01-20T07:24:46;4.90;99.90
11497;DHT22;5805;51.542;7.230;2023-01-20T07:27:12;4.90;99.90
11497;DHT22;5805;51.542;7.230;2023-01-20T07:29:38;4.90;99.90
11497;DHT22;5805;51.542;7.230;2023-01-20T07:32:05;4.90;99.90
11497;DHT22;5805;51.542;7.230;2023-01-20T07:34:30;5.00;99.90
11497;DHT22;5805;51.542;7.230;2023-01-20T07:36:56;5.10;99.90
11497;DHT22;5805;51.542;7.230;2023-01-20T07:39:22;5.10;99.90
11497;DHT22;5805;51.542;7.230;2023-01-20T07:41:47;5.20;99.90
11497;DHT22;5805;51.542;7.230;2023-01-20T07:44:13;5.30;99.90
11497;DHT22;5805;51.542;7.230;2023-01-20T07:46:39;5.30;99.90
11497;DHT22;5805;51.542;7.230;2023-01-20T07:49:06;5.30;99.90
11497;DHT22;5805;51.542;7.230;2023-01-20T07:51:32;5.40;99.90
11497;DHT22;5805;51.542;7.230;2023-01-20T07:53:58;5.40;99.90
11497;DHT22;5805;51.542;7.230;2023-01-20T07:56:25;5.60;99.90
11497;DHT22;5805;51.542;7.230;2023-01-20T07:58:51;5.40;99.90
11497;DHT22;5805;51.542;7.230;2023-01-20T08:01:19;5.50;99.90
11497;DHT22;5805;51.542;7.230;2023-01-20T08:03:46;5.40;99.90
11497;DHT22;5805;51.542;7.230;2023-01-20T08:06:14;5.40;99.90
11497;DHT22;5805;51.542;7.230;2023-01-20T08:08:40;5.40;99.90
11497;DHT22;5805;51.542;7.230;2023-01-20T08:11:07;5.50;99.90
11497;DHT22;5805;51.542;7.230;2023-01-20T08:13:33;5.50;99.90
11497;DHT22;5805;51.542;7.230;2023-01-20T08:16:00;5.50;99.90
11497;DHT22;5805;51.542;7.230;2023-01-20T08:18:26;5.50;99.90
11497;DHT22;5805;51.542;7.230;2023-01-20T08:20:51;5.60;99.90
11497;DHT22;5805;51.542;7.230;2023-01-20T08:23:18;5.60;99.90
11497;DHT22;5805;51.542;7.230;2023-01-20T08:25:44;5.60;99.90
11497;DHT22;5805;51.542;7.230;2023-01-20T08:28:10;5.50;99.90
11497;DHT22;5805;51.542;7.230;2023-01-20T08:30:35;5.50;99.90
11497;DHT22;5805;51.542;7.230;2023-01-20T08:33:01;5.60;99.90
11497;DHT22;5805;51.542;7.230;2023-01-20T08:35:27;5.60;99.90
11497;DHT22;5805;51.542;7.230;2023-01-20T08:37:53;5.60;99.90
11497;DHT22;5805;51.542;7.230;2023-01-20T08:40:20;5.60;99.90
11497;DHT22;5805;51.542;7.230;2023-01-20T08:42:46;5.70;99.90
11497;DHT22;5805;51.542;7.230;2023-01-20T08:45:11;5.70;99.90
11497;DHT22;5805;51.542;7.230;2023-01-20T08:47:38;5.70;99.90
11497;DHT22;5805;51.542;7.230;2023-01-20T08:50:06;5.70;99.90
11497;DHT22;5805;51.542;7.230;2023-01-20T08:52:32;5.70;99.90
11497;DHT22;5805;51.542;7.230;2023-01-20T08:54:57;5.70;99.90
11497;DHT22;5805;51.542;7.230;2023-01-20T08:57:25;5.70;99.90
11497;DHT22;5805;51.542;7.230;2023-01-20T08:59:51;5.80;99.90
11497;DHT22;5805;51.542;7.230;2023-01-20T09:02:16;5.90;99.90
11497;DHT22;5805;51.542;7.230;2023-01-20T09:04:42;6.10;99.90
11497;DHT22;5805;51.542;7.230;2023-01-20T09:07:09;6.10;99.90
11497;DHT22;5805;51.542;7.230;2023-01-20T09:09:35;6.20;99.90
11497;DHT22;5805;51.542;7.230;2023-01-20T09:12:02;6.20;99.90
11497;DHT22;5805;51.542;7.230;2023-01-20T09:14:29;6.20;99.90
11497;DHT22;5805;51.542;7.230;2023-01-20T09:16:54;6.30;99.90
11497;DHT22;5805;51.542;7.230;2023-01-20T09:19:20;6.20;99.90
11497;DHT22;5805;51.542;7.230;2023-01-20T09:21:46;6.20;99.90
11497;DHT22;5805;51.542;7.230;2023-01-20T09:24:12;6.20;99.90
11497;DHT22;5805;51.542;7.230;2023-01-20T09:26:38;6.30;99.90
11497;DHT22;5805;51.542;7.230;2023-01-20T09:29:04;6.30;99.90
11497;DHT22;5805;51.542;7.230;2023-01-20T09:31:32;6.30;99.90
11497;DHT22;5805;51.542;7.230;2023-01-20T09:33:57;6.30;99.90
11497;DHT22;5805;51.542;7.230;2023-01-20T09:36:23;6.40;99.90
11497;DHT22;5805;51.542;7.230;2023-01-20T09:38:49;6.50;99.90
11497;DHT22;5805;51.542;7.230;2023-01-20T09:41:17;6.40;99.90
11497;DHT22;5805;51.542;7.230;2023-01-20T09:43:47;6.30;99.90
11497;DHT22;5805;51.542;7.230;2023-01-20T09:46:25;6.30;99.90
11497;DHT22;5805;51.542;7.230;2023-01-20T09:49:00;6.20;99.90
11497;DHT22;5805;51.542;7.230;2023-01-20T09:51:35;6.30;99.90
11497;DHT22;5805;51.542;7.230;2023-01-20T09:54:04;6.40;99.90
11497;DHT22;5805;51.542;7.230;2023-01-20T09:56:38;6.40;99.90
11497;DHT22;5805;51.542;7.230;2023-01-20T09:59:06;6.40;99.90
11497;DHT22;5805;51.542;7.230;2023-01-20T10:01:36;6.40;99.90
11497;DHT22;5805;51.542;7.230;2023-01-20T10:04:08;6.30;99.90
11497;DHT22;5805;51.542;7.230;2023-01-20T10:06:40;6.30;99.90
11497;DHT22;5805;51.542;7.230;2023-01-20T10:09:14;6.30;99.90
11497;DHT22;5805;51.542;7.230;2023-01-20T10:11:46;6.40;99.90
11497;DHT22;5805;51.542;7.230;2023-01-20T10:14:15;6.30;99.90
11497;DHT22;5805;51.542;7.230;2023-01-20T10:16:48;6.40;99.90
11497;DHT22;5805;51.542;7.230;2023-01-20T10:19:20;6.50;99.90
11497;DHT22;5805;51.542;7.230;2023-01-20T10:21:51;6.60;99.90
11497;DHT22;5805;51.542;7.230;2023-01-20T10:24:23;6.50;99.90
11497;DHT22;5805;51.542;7.230;2023-01-20T10:26:55;6.50;99.90
11497;DHT22;5805;51.542;7.230;2023-01-20T10:29:26;6.50;99.90
11497;DHT22;5805;51.542;7.230;2023-01-20T10:31:58;6.50;99.90
11497;DHT22;5805;51.542;7.230;2023-01-20T10:34:31;6.60;99.90
11497;DHT22;5805;51.542;7.230;2023-01-20T10:37:03;6.60;99.90
11497;DHT22;5805;51.542;7.230;2023-01-20T10:39:43;6.60;99.90
11497;DHT22;5805;51.542;7.230;2023-01-20T10:42:11;6.50;99.90
11497;DHT22;5805;51.542;7.230;2023-01-20T10:44:37;6.60;99.90
11497;DHT22;5805;51.542;7.230;2023-01-20T10:47:25;6.60;99.90
11497;DHT22;5805;51.542;7.230;2023-01-20T10:50:40;6.60;99.90
11497;DHT22;5805;51.542;7.230;2023-01-20T10:53:18;6.70;99.90
11497;DHT22;5805;51.542;7.230;2023-01-20T10:55:53;6.80;99.90
11497;DHT22;5805;51.542;7.230;2023-01-20T10:58:25;6.80;99.90
11497;DHT22;5805;51.542;7.230;2023-01-20T11:00:52;6.70;99.90
11497;DHT22;5805;51.542;7.230;2023-01-20T11:03:20;6.80;99.90
11497;DHT22;5805;51.542;7.230;2023-01-20T11:05:49;6.90;99.90
11497;DHT22;5805;51.542;7.230;2023-01-20T11:08:17;6.90;99.90
11497;DHT22;5805;51.542;7.230;2023-01-20T11:10:44;7.00;99.90
11497;DHT22;5805;51.542;7.230;2023-01-20T11:13:11;7.20;99.90
11497;DHT22;5805;51.542;7.230;2023-01-20T11:15:40;7.20;99.90
11497;DHT22;5805;51.542;7.230;2023-01-20T11:18:19;7.20;99.90
11497;DHT22;5805;51.542;7.230;2023-01-20T11:20:49;7.20;99.90
11497;DHT22;5805;51.542;7.230;2023-01-20T11:23:21;7.20;99.90
11497;DHT22;5805;51.542;7.230;2023-01-20T11:25:53;7.30;99.90
11497;DHT22;5805;51.542;7.230;2023-01-20T11:28:19;7.40;99.90
11497;DHT22;5805;51.542;7.230;2023-01-20T11:30:50;7.30;99.90
11497;DHT22;5805;51.542;7.230;2023-01-20T11:33:19;7.30;99.90
11497;DHT22;5805;51.542;7.230;2023-01-20T11:36:03;7.10;99.90
11497;DHT22;5805;51.542;7.230;2023-01-20T11:38:31;7.10;99.90
11497;DHT22;5805;51.542;7.230;2023-01-20T11:40:58;7.10;99.90
11497;DHT22;5805;51.542;7.230;2023-01-20T11:43:29;7.30;99.90
11497;DHT22;5805;51.542;7.230;2023-01-20T11:46:09;7.40;99.90
11497;DHT22;5805;51.542;7.230;2023-01-20T11:48:35;7.50;99.90
11497;DHT22;5805;51.542;7.230;2023-01-20T11:51:03;7.60;99.90
11497;DHT22;5805;51.542;7.230;2023-01-20T11:53:30;7.60;99.90
11497;DHT22;5805;51.542;7.230;2023-01-20T11:55:57;7.60;99.90
11497;DHT22;5805;51.542;7.230;2023-01-20T11:58:25;7.60;99.90
11497;DHT22;5805;51.542;7.230;2023-01-20T12:00:53;7.60;99.90
11497;DHT22;5805;51.542;7.230;2023-01-20T12:06:33;7.60;99.90
11497;DHT22;5805;51.542;7.230;2023-01-20T12:09:03;7.50;99.90
11497;DHT22;5805;51.542;7.230;2023-01-20T12:11:32;7.50;99.90
11497;DHT22;5805;51.542;7.230;2023-01-20T12:14:04;7.50;99.90
11497;DHT22;5805;51.542;7.230;2023-01-20T12:16:36;7.60;99.90
11497;DHT22;5805;51.542;7.230;2023-01-20T12:19:05;7.60;99.90
11497;DHT22;5805;51.542;7.230;2023-01-20T12:21:40;7.60;99.90
11497;DHT22;5805;51.542;7.230;2023-01-20T12:24:11;7.60;99.90
11497;DHT22;5805;51.542;7.230;2023-01-20T12:26:42;7.50;99.90
11497;DHT22;5805;51.542;7.230;2023-01-20T12:29:16;7.50;99.90
11497;DHT22;5805;51.542;7.230;2023-01-20T12:31:44;7.50;99.90
11497;DHT22;5805;51.542;7.230;2023-01-20T12:34:11;7.50;99.90
11497;DHT22;5805;51.542;7.230;2023-01-20T12:39:51;7.40;99.90
11497;DHT22;5805;51.542;7.230;2023-01-20T12:45:37;7.40;99.90
11497;DHT22;5805;51.542;7.230;2023-01-20T12:48:17;7.40;99.90
11497;DHT22;5805;51.542;7.230;2023-01-20T12:50:55;7.40;99.90
11497;DHT22;5805;51.542;7.230;2023-01-20T12:53:35;7.30;99.90
11497;DHT22;5805;51.542;7.230;2023-01-20T12:56:09;7.30;99.90
11497;DHT22;5805;51.542;7.230;2023-01-20T12:58:46;7.30;99.90
11497;DHT22;5805;51.542;7.230;2023-01-20T13:01:38;7.30;99.90
11497;DHT22;5805;51.542;7.230;2023-01-20T13:07:13;7.40;99.90
11497;DHT22;5805;51.542;7.230;2023-01-20T13:09:56;7.40;99.90
11497;DHT22;5805;51.542;7.230;2023-01-20T13:12:36;7.50;99.90
11497;DHT22;5805;51.542;7.230;2023-01-20T13:15:13;7.30;99.90
11497;DHT22;5805;51.542;7.230;2023-01-20T13:17:48;7.30;99.90
11497;DHT22;5805;51.542;7.230;2023-01-20T13:20:20;7.20;99.90
11497;DHT22;5805;51.542;7.230;2023-01-20T13:22:47;7.20;99.90
11497;DHT22;5805;51.542;7.230;2023-01-20T13:25:15;7.10;99.90
11497;DHT22;5805;51.542;7.230;2023-01-20T13:27:40;7.00;99.90
11497;DHT22;5805;51.542;7.230;2023-01-20T13:30:40;7.10;99.90
11497;DHT22;5805;51.542;7.230;2023-01-20T13:33:14;7.10;99.90
11497;DHT22;5805;51.542;7.230;2023-01-20T13:35:44;7.20;99.90
11497;DHT22;5805;51.542;7.230;2023-01-20T13:38:21;7.10;99.90
11497;DHT22;5805;51.542;7.230;2023-01-20T13:40:59;7.10;99.90
11497;DHT22;5805;51.542;7.230;2023-01-20T13:43:55;7.10;99.90
11497;DHT22;5805;51.542;7.230;2023-01-20T13:46:43;7.10;99.90
11497;DHT22;5805;51.542;7.230;2023-01-20T13:49:27;7.10;99.90
11497;DHT22;5805;51.542;7.230;2023-01-20T13:51:53;7.10;99.90
11497;DHT22;5805;51.542;7.230;2023-01-20T13:54:35;7.10;99.90
11497;DHT22;5805;51.542;7.230;2023-01-20T13:57:34;7.00;99.90
11497;DHT22;5805;51.542;7.230;2023-01-20T14:00:00;7.00;99.90
11497;DHT22;5805;51.542;7.230;2023-01-20T14:02:26;7.00;99.90
11497;DHT22;5805;51.542;7.230;2023-01-20T14:04:53;6.90;99.90
11497;DHT22;5805;51.542;7.230;2023-01-20T14:07:22;6.80;99.90
11497;DHT22;5805;51.542;7.230;2023-01-20T14:09:50;6.80;99.90
11497;DHT22;5805;51.542;7.230;2023-01-20T14:12:16;6.70;99.90
11497;DHT22;5805;51.542;7.230;2023-01-20T14:14:43;6.70;99.90
11497;DHT22;5805;51.542;7.230;2023-01-20T14:17:12;6.70;99.90
11497;DHT22;5805;51.542;7.230;2023-01-20T14:19:39;6.70;99.90
11497;DHT22;5805;51.542;7.230;2023-01-20T14:22:17;6.80;99.90
11497;DHT22;5805;51.542;7.230;2023-01-20T14:24:44;6.90;99.90
11497;DHT22;5805;51.542;7.230;2023-01-20T14:27:16;6.80;99.90
11497;DHT22;5805;51.542;7.230;2023-01-20T14:29:44;6.90;99.90
11497;DHT22;5805;51.542;7.230;2023-01-20T14:32:16;6.90;99.90
11497;DHT22;5805;51.542;7.230;2023-01-20T14:34:42;6.90;99.90
11497;DHT22;5805;51.542;7.230;2023-01-20T14:37:23;6.80;99.90
11497;DHT22;5805;51.542;7.230;2023-01-20T14:39:50;6.80;99.90
11497;DHT22;5805;51.542;7.230;2023-01-20T14:42:17;6.90;99.90
11497;DHT22;5805;51.542;7.230;2023-01-20T14:44:48;6.90;99.90
11497;DHT22;5805;51.542;7.230;2023-01-20T14:47:14;6.90;99.90
11497;DHT22;5805;51.542;7.230;2023-01-20T14:49:41;6.90;99.90
11497;DHT22;5805;51.542;7.230;2023-01-20T14:52:09;6.90;99.90
11497;DHT22;5805;51.542;7.230;2023-01-20T14:54:41;6.80;99.90
11497;DHT22;5805;51.542;7.230;2023-01-20T14:57:26;6.80;99.90
11497;DHT22;5805;51.542;7.230;2023-01-20T15:00:15;6.90;99.90
11497;DHT22;5805;51.542;7.230;2023-01-20T15:02:47;7.00;99.90
11497;DHT22;5805;51.542;7.230;2023-01-20T15:05:24;7.00;99.90
11497;DHT22;5805;51.542;7.230;2023-01-20T15:08:16;7.00;99.90
11497;DHT22;5805;51.542;7.230;2023-01-20T15:10:42;7.00;99.90
11497;DHT22;5805;51.542;7.230;2023-01-20T15:13:21;6.90;99.90
11497;DHT22;5805;51.542;7.230;2023-01-20T15:15:49;6.90;99.90
11497;DHT22;5805;51.542;7.230;2023-01-20T15:18:18;6.70;99.90
11497;DHT22;5805;51.542;7.230;2023-01-20T15:20:47;6.70;99.90
11497;DHT22;5805;51.542;7.230;2023-01-20T15:23:29;6.60;99.90
11497;DHT22;5805;51.542;7.230;2023-01-20T15:26:05;6.60;99.90
11497;DHT22;5805;51.542;7.230;2023-01-20T15:28:35;6.50;99.90
11497;DHT22;5805;51.542;7.230;2023-01-20T15:31:03;6.40;99.90
11497;DHT22;5805;51.542;7.230;2023-01-20T15:33:29;6.30;99.90
11497;DHT22;5805;51.542;7.230;2023-01-20T15:35:57;6.20;99.90
11497;DHT22;5805;51.542;7.230;2023-01-20T15:38:23;6.20;99.90
11497;DHT22;5805;51.542;7.230;2023-01-20T15:40:49;6.10;99.90
11497;DHT22;5805;51.542;7.230;2023-01-20T15:43:16;6.10;99.90
11497;DHT22;5805;51.542;7.230;2023-01-20T15:45:42;6.10;99.90
11497;DHT22;5805;51.542;7.230;2023-01-20T15:48:13;6.20;99.90
11497;DHT22;5805;51.542;7.230;2023-01-20T15:50:40;6.10;99.90
11497;DHT22;5805;51.542;7.230;2023-01-20T15:53:05;6.10;99.90
11497;DHT22;5805;51.542;7.230;2023-01-20T15:55:31;6.10;99.90
11497;DHT22;5805;51.542;7.230;2023-01-20T15:57:57;6.00;99.90
11497;DHT22;5805;51.542;7.230;2023-01-20T16:00:24;6.00;99.90
11497;DHT22;5805;51.542;7.230;2023-01-20T16:02:50;6.00;99.90
11497;DHT22;5805;51.542;7.230;2023-01-20T16:05:17;5.90;99.90
11497;DHT22;5805;51.542;7.230;2023-01-20T16:07:43;5.80;99.90
11497;DHT22;5805;51.542;7.230;2023-01-20T16:10:13;5.70;99.90
11497;DHT22;5805;51.542;7.230;2023-01-20T16:12:39;5.60;99.90
11497;DHT22;5805;51.542;7.230;2023-01-20T16:15:06;5.70;99.90
11497;DHT22;5805;51.542;7.230;2023-01-20T16:17:32;5.50;99.90
11497;DHT22;5805;51.542;7.230;2023-01-20T16:19:58;5.40;99.90
11497;DHT22;5805;51.542;7.230;2023-01-20T16:22:25;5.40;99.90
11497;DHT22;5805;51.542;7.230;2023-01-20T16:24:50;5.30;99.90
11497;DHT22;5805;51.542;7.230;2023-01-20T16:27:18;5.20;99.90